createdAt,value
2019-04-01T00:01:44.142Z,9.13
2019-04-01T00:04:12.208Z,8.90
2019-04-01T00:06:40.061Z,8.90
2019-04-01T00:09:08.229Z,9.50
2019-04-01T00:11:36.539Z,8.43
2019-04-01T00:14:04.605Z,8.87
2019-04-01T00:16:32.630Z,9.00
2019-04-01T00:19:03.285Z,9.27
2019-04-01T00:21:29.467Z,8.63
2019-04-01T00:23:57.403Z,9.27
2019-04-01T00:26:25.792Z,8.63
2019-04-01T00:28:53.066Z,9.03
2019-04-01T00:31:21.338Z,9.30
2019-04-01T00:33:48.879Z,8.83
2019-04-01T00:36:16.577Z,7.90
2019-04-01T00:38:44.568Z,8.03
2019-04-01T00:41:12.375Z,8.80
2019-04-01T00:43:59.577Z,8.80
2019-04-01T00:46:27.419Z,9.13
2019-04-01T00:48:55.809Z,8.90
2019-04-01T00:51:23.726Z,9.33
2019-04-01T00:53:51.247Z,8.83
2019-04-01T00:56:18.654Z,8.27
2019-04-01T00:58:46.398Z,8.63
2019-04-01T01:01:14.152Z,8.50
2019-04-01T01:03:41.887Z,8.53
2019-04-01T01:06:09.789Z,7.93
2019-04-01T01:08:37.838Z,9.30
2019-04-01T01:11:06.149Z,8.43
2019-04-01T01:13:33.944Z,8.83
2019-04-01T01:16:01.826Z,9.73
2019-04-01T01:18:29.826Z,8.93
2019-04-01T01:20:57.445Z,8.47
2019-04-01T01:23:24.994Z,9.73
2019-04-01T01:25:53.190Z,9.67
2019-04-01T01:28:21.089Z,9.13
2019-04-01T01:30:48.543Z,11.27
2019-04-01T01:33:16.183Z,10.40
2019-04-01T01:35:43.935Z,9.63
2019-04-01T01:38:11.339Z,9.70
2019-04-01T01:40:39.062Z,9.77
2019-04-01T01:43:07.055Z,9.77
2019-04-01T01:45:34.605Z,10.37
2019-04-01T01:48:02.294Z,9.70
2019-04-01T01:50:29.715Z,9.23
2019-04-01T01:52:57.277Z,9.73
2019-04-01T01:55:24.813Z,8.40
2019-04-01T01:57:52.291Z,9.73
2019-04-01T02:00:20.836Z,10.10
2019-04-01T02:02:49.227Z,10.03
2019-04-01T02:05:16.759Z,10.07
2019-04-01T02:07:44.863Z,9.33
2019-04-01T02:10:13.065Z,10.43
2019-04-01T02:12:40.374Z,8.77
2019-04-01T02:15:08.555Z,10.07
2019-04-01T02:17:36.959Z,9.67
2019-04-01T02:20:05.145Z,9.00
2019-04-01T02:22:32.693Z,9.73
2019-04-01T02:25:00.531Z,9.53
2019-04-01T02:27:28.299Z,9.63
2019-04-01T02:29:56.295Z,9.20
2019-04-01T02:32:23.682Z,9.30
2019-04-01T02:34:51.256Z,9.13
2019-04-01T02:37:18.731Z,9.00
2019-04-01T02:39:46.460Z,8.57
2019-04-01T02:42:14.513Z,8.30
2019-04-01T02:44:42.698Z,7.10
2019-04-01T02:47:10.721Z,9.10
2019-04-01T02:49:38.498Z,9.27
2019-04-01T02:52:05.840Z,8.77
2019-04-01T02:54:33.927Z,8.00
2019-04-01T02:57:01.498Z,8.77
2019-04-01T02:59:29.179Z,8.90
2019-04-01T03:01:57.142Z,9.03
2019-04-01T03:04:24.525Z,8.63
2019-04-01T03:06:52.448Z,7.93
2019-04-01T03:09:20.099Z,8.27
2019-04-01T03:11:48.013Z,8.13
2019-04-01T03:14:15.883Z,8.77
2019-04-01T03:16:44.044Z,6.53
2019-04-01T03:19:11.736Z,8.10
2019-04-01T03:21:39.400Z,8.20
2019-04-01T03:26:31.465Z,8.37
2019-04-01T03:28:59.132Z,7.47
2019-04-01T03:31:26.956Z,7.80
2019-04-01T03:33:54.721Z,7.07
2019-04-01T03:36:22.800Z,7.57
2019-04-01T03:38:50.761Z,7.47
2019-04-01T03:41:18.167Z,7.70
2019-04-01T03:43:45.945Z,7.47
2019-04-01T03:46:13.124Z,7.47
2019-04-01T03:48:40.773Z,7.83
2019-04-01T03:51:08.220Z,7.37
2019-04-01T03:53:35.959Z,7.53
2019-04-01T03:56:03.628Z,7.40
2019-04-01T03:58:31.241Z,7.00
2019-04-01T04:00:59.168Z,6.93
2019-04-01T04:03:26.783Z,6.77
2019-04-01T04:05:54.655Z,7.17
2019-04-01T04:08:22.606Z,6.80
2019-04-01T04:10:50.297Z,7.17
2019-04-01T04:13:17.990Z,7.27
2019-04-01T04:15:46.143Z,7.03
2019-04-01T04:18:13.931Z,7.40
2019-04-01T04:20:41.937Z,8.23
2019-04-01T04:23:09.839Z,7.57
2019-04-01T04:25:38.658Z,7.17
2019-04-01T04:28:06.534Z,7.40
2019-04-01T04:30:34.810Z,7.13
2019-04-01T04:33:02.604Z,7.97
2019-04-01T04:35:29.995Z,7.10
2019-04-01T04:37:57.535Z,8.03
2019-04-01T04:40:25.276Z,7.27
2019-04-01T04:42:53.172Z,7.57
2019-04-01T04:45:21.226Z,8.13
2019-04-01T04:47:48.980Z,7.87
2019-04-01T04:50:17.178Z,7.27
2019-04-01T04:52:45.154Z,7.30
2019-04-01T04:55:12.393Z,6.70
2019-04-01T04:57:39.793Z,7.40
2019-04-01T05:00:07.730Z,7.07
2019-04-01T05:02:35.282Z,7.57
2019-04-01T05:05:03.322Z,7.60
2019-04-01T05:07:31.515Z,7.43
2019-04-01T05:09:58.775Z,7.17
2019-04-01T05:12:26.321Z,7.27
2019-04-01T05:14:53.845Z,8.33
2019-04-01T05:17:22.014Z,7.33
2019-04-01T05:19:49.664Z,7.13
2019-04-01T05:22:20.561Z,8.10
2019-04-01T05:24:50.229Z,7.80
2019-04-01T05:29:47.560Z,7.40
2019-04-01T05:32:18.062Z,7.67
2019-04-01T05:34:48.444Z,7.53
2019-04-01T05:37:16.330Z,7.43
2019-04-01T05:39:45.116Z,6.67
2019-04-01T05:42:12.519Z,7.50
2019-04-01T05:44:40.063Z,8.00
2019-04-01T05:47:07.740Z,7.43
2019-04-01T05:49:35.503Z,7.87
2019-04-01T05:52:03.108Z,6.80
2019-04-01T05:54:31.020Z,6.90
2019-04-01T05:56:59.355Z,6.93
2019-04-01T05:59:27.961Z,6.90
2019-04-01T06:01:56.144Z,7.40
2019-04-01T06:04:23.414Z,6.87
2019-04-01T06:06:51.257Z,6.90
2019-04-01T06:09:19.282Z,7.40
2019-04-01T06:11:47.933Z,7.13
2019-04-01T06:14:15.350Z,7.57
2019-04-01T06:16:42.922Z,6.43
2019-04-01T06:19:11.020Z,7.03
2019-04-01T06:21:38.579Z,6.33
2019-04-01T06:24:07.152Z,7.07
2019-04-01T06:26:34.566Z,6.97
2019-04-01T06:29:02.161Z,6.10
2019-04-01T06:31:29.879Z,5.80
2019-04-01T06:33:57.411Z,6.17
2019-04-01T06:36:25.625Z,6.40
2019-04-01T06:38:53.491Z,6.23
2019-04-01T06:41:21.465Z,5.17
2019-04-01T06:43:49.270Z,5.73
2019-04-01T06:46:17.932Z,6.40
2019-04-01T06:48:46.041Z,5.03
2019-04-01T06:51:13.993Z,4.90
2019-04-01T06:53:44.633Z,6.00
2019-04-01T06:56:12.609Z,4.97
2019-04-01T06:58:40.193Z,5.53
2019-04-01T07:01:08.329Z,6.03
2019-04-01T07:03:35.862Z,5.43
2019-04-01T07:06:07.945Z,5.30
2019-04-01T07:08:35.865Z,5.30
2019-04-01T07:11:04.117Z,5.80
2019-04-01T07:13:31.930Z,4.87
2019-04-01T07:16:14.374Z,5.10
2019-04-01T07:18:29.476Z,5.27
2019-04-01T07:20:57.302Z,6.17
2019-04-01T07:23:25.325Z,4.87
2019-04-01T07:25:53.091Z,5.03
2019-04-01T07:28:20.962Z,4.43
2019-04-01T07:30:49.118Z,4.73
2019-04-01T07:33:16.875Z,5.00
2019-04-01T07:35:46.630Z,4.77
2019-04-01T07:38:14.302Z,4.90
2019-04-01T07:40:42.680Z,4.80
2019-04-01T07:43:10.790Z,4.10
2019-04-01T07:45:39.140Z,4.73
2019-04-01T07:48:06.810Z,4.63
2019-04-01T07:50:34.688Z,4.70
2019-04-01T07:53:02.224Z,4.60
2019-04-01T07:55:30.076Z,5.23
2019-04-01T07:57:59.701Z,4.80
2019-04-01T08:00:27.814Z,4.63
2019-04-01T08:02:55.988Z,4.33
2019-04-01T08:05:26.040Z,4.23
2019-04-01T08:07:54.067Z,4.60
2019-04-01T08:10:21.525Z,4.93
2019-04-01T08:12:49.986Z,4.63
2019-04-01T08:15:21.154Z,5.57
2019-04-01T08:17:47.195Z,4.77
2019-04-01T08:20:15.503Z,4.27
2019-04-01T08:22:43.622Z,4.70
2019-04-01T08:25:11.231Z,4.83
2019-04-01T08:27:39.121Z,5.00
2019-04-01T08:30:07.734Z,5.30
2019-04-01T08:32:35.757Z,4.67
2019-04-01T08:35:03.945Z,5.27
2019-04-01T08:37:31.716Z,5.50
2019-04-01T08:39:59.648Z,5.20
2019-04-01T08:42:27.038Z,5.33
2019-04-01T08:44:55.755Z,5.33
2019-04-01T08:47:23.832Z,5.33
2019-04-01T08:49:52.317Z,5.20
2019-04-01T08:52:20.566Z,5.23
2019-04-01T08:54:48.099Z,5.83
2019-04-01T08:57:15.978Z,5.40
2019-04-01T08:59:43.430Z,5.43
2019-04-01T09:02:18.287Z,5.63
2019-04-01T09:04:42.006Z,5.00
2019-04-01T09:07:09.513Z,5.47
2019-04-01T09:09:38.614Z,5.40
2019-04-01T09:12:07.230Z,5.53
2019-04-01T09:14:36.467Z,6.10
2019-04-01T09:17:04.337Z,5.27
2019-04-01T09:19:33.118Z,5.93
2019-04-01T09:22:01.412Z,5.97
2019-04-01T09:24:28.938Z,5.90
2019-04-01T09:26:56.338Z,6.43
2019-04-01T09:29:23.923Z,6.53
2019-04-01T09:31:51.583Z,6.53
2019-04-01T09:34:19.448Z,6.43
2019-04-01T09:36:47.387Z,6.67
2019-04-01T09:39:14.839Z,6.20
2019-04-01T09:41:43.187Z,6.10
2019-04-01T09:44:10.854Z,6.17
2019-04-01T09:46:38.250Z,6.63
2019-04-01T09:49:06.178Z,6.07
2019-04-01T09:51:47.894Z,6.57
2019-04-01T09:54:04.085Z,6.30
2019-04-01T09:56:31.959Z,7.17
2019-04-01T09:58:59.497Z,6.53
2019-04-01T10:01:27.639Z,6.73
2019-04-01T10:03:55.716Z,7.47
2019-04-01T10:06:23.728Z,7.37
2019-04-01T10:08:51.263Z,6.63
2019-04-01T10:11:18.740Z,6.73
2019-04-01T10:13:46.735Z,7.40
2019-04-01T10:16:14.298Z,8.23
2019-04-01T10:18:42.123Z,8.07
2019-04-01T10:21:10.655Z,7.80
2019-04-01T10:23:38.128Z,8.47
2019-04-01T10:26:05.677Z,7.83
2019-04-01T10:28:33.197Z,8.27
2019-04-01T10:31:01.337Z,8.00
2019-04-01T10:33:28.759Z,8.80
2019-04-01T10:35:56.281Z,8.40
2019-04-01T10:38:24.184Z,8.00
2019-04-01T10:40:51.640Z,8.40
2019-04-01T10:43:19.780Z,10.00
2019-04-01T10:45:47.277Z,9.67
2019-04-01T10:48:15.024Z,8.50
2019-04-01T10:50:42.816Z,8.90
2019-04-01T10:53:10.296Z,9.00
2019-04-01T10:55:37.913Z,9.13
2019-04-01T10:58:05.746Z,10.10
2019-04-01T11:00:33.793Z,9.90
2019-04-01T11:03:01.345Z,8.53
2019-04-01T11:05:28.894Z,9.53
2019-04-01T11:07:56.672Z,9.73
2019-04-01T11:10:24.529Z,9.40
2019-04-01T11:12:53.883Z,10.57
2019-04-01T11:15:21.596Z,9.33
2019-04-01T11:17:52.299Z,9.63
2019-04-01T11:20:19.147Z,10.97
2019-04-01T11:22:46.747Z,10.37
2019-04-01T11:25:14.917Z,9.30
2019-04-01T11:27:42.182Z,10.03
2019-04-01T11:30:13.694Z,10.50
2019-04-01T11:32:40.850Z,9.63
2019-04-01T11:35:08.401Z,10.00
2019-04-01T11:37:36.128Z,9.80
2019-04-01T11:40:05.150Z,10.87
2019-04-01T11:42:33.132Z,9.90
2019-04-01T11:45:05.905Z,9.97
2019-04-01T11:47:34.156Z,9.40
2019-04-01T11:50:02.813Z,9.90
2019-04-01T11:52:30.346Z,10.97
2019-04-01T11:54:58.808Z,11.67
2019-04-01T11:57:26.585Z,10.57
2019-04-01T11:59:54.249Z,9.90
2019-04-01T12:02:22.387Z,10.87
2019-04-01T12:04:50.204Z,10.17
2019-04-01T12:07:18.200Z,11.23
2019-04-01T12:09:46.356Z,11.67
2019-04-01T12:12:23.458Z,10.30
2019-04-01T12:14:44.404Z,9.27
2019-04-01T12:17:12.584Z,10.37
2019-04-01T12:19:40.470Z,10.80
2019-04-01T12:22:08.551Z,10.47
2019-04-01T12:24:36.351Z,10.87
2019-04-01T12:27:04.120Z,11.27
2019-04-01T12:29:31.817Z,10.00
2019-04-01T12:31:59.966Z,11.07
2019-04-01T12:34:28.885Z,21.70
2019-04-01T12:36:56.738Z,12.73
2019-04-01T12:39:24.669Z,11.53
2019-04-01T12:41:52.294Z,10.93
2019-04-01T12:44:19.842Z,9.77
2019-04-01T12:46:47.535Z,10.80
2019-04-01T12:49:14.947Z,10.80
2019-04-01T12:51:42.222Z,11.80
2019-04-01T12:54:10.001Z,11.80
2019-04-01T12:56:37.855Z,11.13
2019-04-01T12:59:05.534Z,11.90
2019-04-01T13:01:33.721Z,9.87
2019-04-01T13:04:04.320Z,10.67
2019-04-01T13:06:32.122Z,10.87
2019-04-01T13:08:59.692Z,11.33
2019-04-01T13:11:27.898Z,12.00
2019-04-01T13:13:55.775Z,11.37
2019-04-01T13:16:23.615Z,10.77
2019-04-01T13:18:51.030Z,11.37
2019-04-01T13:21:18.627Z,10.90
2019-04-01T13:23:46.826Z,10.63
2019-04-01T13:26:14.557Z,10.43
2019-04-01T13:28:42.544Z,10.57
2019-04-01T13:31:10.952Z,10.80
2019-04-01T13:33:38.391Z,13.13
2019-04-01T13:36:07.848Z,11.40
2019-04-01T13:38:35.440Z,10.70
2019-04-01T13:41:03.266Z,11.13
2019-04-01T13:43:31.053Z,10.13
2019-04-01T13:45:58.575Z,11.17
2019-04-01T13:48:26.471Z,11.43
2019-04-01T13:50:54.336Z,11.60
2019-04-01T13:53:22.219Z,10.87
2019-04-01T13:55:50.056Z,10.60
2019-04-01T13:58:17.848Z,11.47
2019-04-01T14:00:45.827Z,10.97
2019-04-01T14:03:13.362Z,11.17
2019-04-01T14:05:40.633Z,11.00
2019-04-01T14:08:08.472Z,11.93
2019-04-01T14:10:36.629Z,11.47
2019-04-01T14:13:05.918Z,10.50
2019-04-01T14:15:33.478Z,10.07
2019-04-01T14:18:01.448Z,10.23
2019-04-01T14:20:29.034Z,11.23
2019-04-01T14:22:56.828Z,11.73
2019-04-01T14:25:24.117Z,11.50
2019-04-01T14:27:52.118Z,11.53
2019-04-01T14:30:20.309Z,10.93
2019-04-01T14:32:48.070Z,10.73
2019-04-01T14:35:15.468Z,9.90
2019-04-01T14:37:43.608Z,11.97
2019-04-01T14:40:12.399Z,10.23
2019-04-01T14:42:40.170Z,10.40
2019-04-01T14:45:09.003Z,11.40
2019-04-01T14:47:55.984Z,9.83
2019-04-01T14:50:10.799Z,10.40
2019-04-01T14:52:38.515Z,11.30
2019-04-01T14:55:06.606Z,11.40
2019-04-01T14:57:34.762Z,9.90
2019-04-01T15:00:03.046Z,9.17
2019-04-01T15:02:30.570Z,10.83
2019-04-01T15:04:58.186Z,9.63
2019-04-01T15:07:26.153Z,10.40
2019-04-01T15:09:53.935Z,9.93
2019-04-01T15:12:21.908Z,10.33
2019-04-01T15:14:49.154Z,10.00
2019-04-01T15:17:17.472Z,9.90
2019-04-01T15:19:48.413Z,9.60
2019-04-01T15:22:14.817Z,10.70
2019-04-01T15:24:43.278Z,9.60
2019-04-01T15:27:13.511Z,10.03
2019-04-01T15:29:40.952Z,9.87
2019-04-01T15:32:08.488Z,10.47
2019-04-01T15:34:36.389Z,9.10
2019-04-01T15:37:04.632Z,9.90
2019-04-01T15:39:32.471Z,9.73
2019-04-01T15:42:00.007Z,9.87
2019-04-01T15:44:29.261Z,7.17
2019-04-01T15:46:56.899Z,10.23
2019-04-01T15:49:24.495Z,11.07
2019-04-01T15:51:52.311Z,11.20
2019-04-01T15:54:20.755Z,10.97
2019-04-01T15:56:49.140Z,10.57
2019-04-01T15:59:17.313Z,11.20
2019-04-01T16:01:45.550Z,10.20
2019-04-01T16:04:16.272Z,11.17
2019-04-01T16:06:42.567Z,10.13
2019-04-01T16:09:10.370Z,10.10
2019-04-01T16:11:37.681Z,9.80
2019-04-01T16:14:05.837Z,9.30
2019-04-01T16:16:33.547Z,10.63
2019-04-01T16:19:01.634Z,10.00
2019-04-01T16:21:31.438Z,9.40
2019-04-01T16:23:58.918Z,10.03
2019-04-01T16:26:26.831Z,9.90
2019-04-01T16:28:54.596Z,10.67
2019-04-01T16:31:22.518Z,9.60
2019-04-01T16:33:50.401Z,9.83
2019-04-01T16:36:18.528Z,9.80
2019-04-01T16:38:46.286Z,10.20
2019-04-01T16:41:14.178Z,9.37
2019-04-01T16:43:42.953Z,9.80
2019-04-01T16:46:11.361Z,9.97
2019-04-01T16:48:40.023Z,9.27
2019-04-01T16:51:07.879Z,9.10
2019-04-01T16:53:35.672Z,8.80
2019-04-01T16:56:04.342Z,9.50
2019-04-01T16:58:32.541Z,8.20
2019-04-01T17:01:02.638Z,8.13
2019-04-01T17:03:30.366Z,9.07
2019-04-01T17:05:58.394Z,9.40
2019-04-01T17:08:25.902Z,8.23
2019-04-01T17:10:53.720Z,9.13
2019-04-01T17:13:21.399Z,8.87
2019-04-01T17:15:49.488Z,8.63
2019-04-01T17:18:17.308Z,8.07
2019-04-01T17:20:44.817Z,8.57
2019-04-01T17:23:12.903Z,8.00
2019-04-01T17:25:40.650Z,7.97
2019-04-01T17:28:08.178Z,8.17
2019-04-01T17:30:35.600Z,9.20
2019-04-01T17:33:03.187Z,8.50
2019-04-01T17:35:31.015Z,8.47
2019-04-01T17:37:58.513Z,7.87
2019-04-01T17:40:26.291Z,8.77
2019-04-01T17:42:54.295Z,7.87
2019-04-01T17:45:37.999Z,8.20
2019-04-01T17:48:06.810Z,8.47
2019-04-01T17:50:34.592Z,7.87
2019-04-01T17:53:04.740Z,8.00
2019-04-01T17:55:32.283Z,8.80
2019-04-01T17:57:59.976Z,8.53
2019-04-01T18:00:28.541Z,8.30
2019-04-01T18:02:56.924Z,7.80
2019-04-01T18:05:24.859Z,8.33
2019-04-01T18:07:52.353Z,9.10
2019-04-01T18:10:20.231Z,8.27
2019-04-01T18:12:47.749Z,9.93
2019-04-01T18:15:16.339Z,7.83
2019-04-01T18:17:44.811Z,8.53
2019-04-01T18:20:12.548Z,9.93
2019-04-01T18:22:40.682Z,8.53
2019-04-01T18:25:09.308Z,9.27
2019-04-01T18:27:37.213Z,9.17
2019-04-01T18:30:06.736Z,9.70
2019-04-01T18:32:34.666Z,8.27
2019-04-01T18:35:04.213Z,8.63
2019-04-01T18:37:32.149Z,7.73
2019-04-01T18:39:59.921Z,7.63
2019-04-01T18:42:27.762Z,7.47
2019-04-01T18:44:55.991Z,7.03
2019-04-01T18:47:23.959Z,7.20
2019-04-01T18:49:51.258Z,7.20
2019-04-01T18:52:19.295Z,7.60
2019-04-01T18:54:47.058Z,6.30
2019-04-01T18:57:14.317Z,6.67
2019-04-01T18:59:42.114Z,6.53
2019-04-01T19:02:09.887Z,6.80
2019-04-01T19:04:38.336Z,5.70
2019-04-01T19:07:05.806Z,6.47
2019-04-01T19:09:33.458Z,6.20
2019-04-01T19:12:04.325Z,6.57
2019-04-01T19:14:31.160Z,6.70
2019-04-01T19:16:59.385Z,6.07
2019-04-01T19:19:26.854Z,6.10
2019-04-01T19:21:54.734Z,6.83
2019-04-01T19:24:22.154Z,6.20
2019-04-01T19:26:50.086Z,6.73
2019-04-01T19:29:17.508Z,6.10
2019-04-01T19:31:45.375Z,6.53
2019-04-01T19:34:12.654Z,6.03
2019-04-01T19:36:40.882Z,6.57
2019-04-01T19:39:08.210Z,6.27
2019-04-01T19:41:35.813Z,6.10
2019-04-01T19:44:03.726Z,7.17
2019-04-01T19:46:31.448Z,5.80
2019-04-01T19:49:01.230Z,6.23
2019-04-01T19:51:28.898Z,6.60
2019-04-01T19:53:56.297Z,6.40
2019-04-01T19:56:23.740Z,6.70
2019-04-01T19:58:51.121Z,6.37
2019-04-01T20:01:18.651Z,6.40
2019-04-01T20:03:46.226Z,5.97
2019-04-01T20:06:14.013Z,6.63
2019-04-01T20:08:41.915Z,6.37
2019-04-01T20:11:10.186Z,7.17
2019-04-01T20:13:39.294Z,6.87
2019-04-01T20:16:10.084Z,6.03
2019-04-01T20:18:36.767Z,6.57
2019-04-01T20:21:04.736Z,6.30
2019-04-01T20:23:32.011Z,6.60
2019-04-01T20:25:59.781Z,6.40
2019-04-01T20:28:27.667Z,7.23
2019-04-01T20:30:56.566Z,6.40
2019-04-01T20:33:24.413Z,7.20
2019-04-01T20:35:53.159Z,7.17
2019-04-01T20:38:20.886Z,6.50
2019-04-01T20:40:48.436Z,7.93
2019-04-01T20:43:16.256Z,7.50
2019-04-01T20:45:43.652Z,7.20
2019-04-01T20:48:11.464Z,7.23
2019-04-01T20:50:39.274Z,8.07
2019-04-01T20:53:06.974Z,7.10
2019-04-01T20:55:47.400Z,7.33
2019-04-01T20:58:04.962Z,7.53
2019-04-01T21:00:32.353Z,7.73
2019-04-01T21:03:01.301Z,7.53
2019-04-01T21:05:29.396Z,8.50
2019-04-01T21:07:57.580Z,7.93
2019-04-01T21:10:24.967Z,7.80
2019-04-01T21:12:53.701Z,7.47
2019-04-01T21:15:24.811Z,7.60
2019-04-01T21:17:53.359Z,8.10
2019-04-01T21:20:22.059Z,8.73
2019-04-01T21:22:49.591Z,8.57
2019-04-01T21:25:17.023Z,8.47
2019-04-01T21:27:44.966Z,7.90
2019-04-01T21:30:13.752Z,8.97
2019-04-01T21:32:41.745Z,8.50
2019-04-01T21:35:09.787Z,8.50
2019-04-01T21:37:37.915Z,8.17
2019-04-01T21:40:06.258Z,8.83
2019-04-01T21:42:33.809Z,8.97
2019-04-01T21:45:01.536Z,8.47
2019-04-01T21:47:29.688Z,9.20
2019-04-01T21:49:58.213Z,8.67
2019-04-01T21:52:26.151Z,8.33
2019-04-01T21:54:53.931Z,9.83
2019-04-01T21:57:22.741Z,8.97
2019-04-01T21:59:51.417Z,8.90
2019-04-01T22:02:19.035Z,8.87
2019-04-01T22:04:47.247Z,9.03
2019-04-01T22:07:15.437Z,10.47
2019-04-01T22:09:43.295Z,9.60
2019-04-01T22:12:11.037Z,9.50
2019-04-01T22:14:39.416Z,9.33
2019-04-01T22:17:06.957Z,9.50
2019-04-01T22:19:34.700Z,9.77
2019-04-01T22:22:02.054Z,9.20
2019-04-01T22:24:30.359Z,9.93
2019-04-01T22:26:58.245Z,9.93
2019-04-01T22:29:26.284Z,9.43
2019-04-01T22:31:53.817Z,9.70
2019-04-01T22:34:22.043Z,10.13
2019-04-01T22:36:50.024Z,8.90
2019-04-01T22:39:27.061Z,9.13
2019-04-01T22:41:47.785Z,9.70
2019-04-01T22:44:15.702Z,9.40
2019-04-01T22:46:43.753Z,10.20
2019-04-01T22:49:12.208Z,10.93
2019-04-01T22:51:40.919Z,9.97
2019-04-01T22:54:09.104Z,9.33
2019-04-01T22:56:37.034Z,10.40
2019-04-01T22:59:04.423Z,10.30
2019-04-01T23:01:32.292Z,9.83
2019-04-01T23:04:00.322Z,10.27
2019-04-01T23:06:27.614Z,10.27
2019-04-01T23:08:56.066Z,10.17
2019-04-01T23:11:24.208Z,10.77
2019-04-01T23:13:53.396Z,10.80
2019-04-01T23:16:20.941Z,9.80
2019-04-01T23:18:48.477Z,10.17
2019-04-01T23:21:15.901Z,8.80
2019-04-01T23:23:43.553Z,9.37
2019-04-01T23:26:11.528Z,11.00
2019-04-01T23:28:39.464Z,9.87
2019-04-01T23:31:07.951Z,10.53
2019-04-01T23:33:35.260Z,11.33
2019-04-01T23:36:02.917Z,10.93
2019-04-01T23:38:30.816Z,11.37
2019-04-01T23:40:58.096Z,10.70
2019-04-01T23:43:26.193Z,11.20
2019-04-01T23:45:54.355Z,10.43
2019-04-01T23:48:21.716Z,11.53
2019-04-01T23:50:49.332Z,11.13
2019-04-01T23:53:17.186Z,10.53
2019-04-01T23:55:45.099Z,11.47
2019-04-01T23:58:12.845Z,8.13
